Time;durP1;ratioP1;P1;durP2;ratioP2;P2;SDS_P1;SDS_P2;PMS_P1;PMS_P2;Temp;Humidity;BMP_temperature;BMP_pressure;BME280_temperature;BME280_humidity;BME280_pressure;Samples;Min_cycle;Max_cycle;Signal;HPM_P1;HPM_P2
2023/04/14 00:00:52;;;;;;;3.33;1.88;;;7.80;72.20;;;;;;5041059;28;20119;-66
2023/04/14 00:03:18;;;;;;;2.92;1.95;;;7.80;72.40;;;;;;5031275;28;20036;-67
2023/04/14 00:05:43;;;;;;;3.67;2.20;;;7.80;72.30;;;;;;5033931;28;20022;-67
2023/04/14 00:08:09;;;;;;;2.97;1.73;;;7.80;72.30;;;;;;5046868;28;20033;-68
2023/04/14 00:10:35;;;;;;;3.15;1.88;;;7.80;72.20;;;;;;5040467;28;20028;-68
2023/04/14 00:13:01;;;;;;;4.35;1.70;;;7.80;72.10;;;;;;5036486;28;20434;-67
2023/04/14 00:15:26;;;;;;;3.83;1.90;;;7.70;72.10;;;;;;5049212;28;20063;-66
2023/04/14 00:17:52;;;;;;;3.17;1.63;;;7.60;72.20;;;;;;5051507;28;20075;-69
2023/04/14 00:20:17;;;;;;;2.33;1.50;;;7.60;72.40;;;;;;5051272;28;20450;-66
2023/04/14 00:22:43;;;;;;;3.80;1.48;;;7.60;72.40;;;;;;5051971;28;20037;-67
2023/04/14 00:25:09;;;;;;;2.88;1.60;;;7.70;72.40;;;;;;5069543;28;20040;-67
2023/04/14 00:27:34;;;;;;;2.65;1.60;;;7.70;72.30;;;;;;5055873;28;20033;-68
2023/04/14 00:30:00;;;;;;;3.13;1.40;;;7.80;72.20;;;;;;5052329;28;20017;-67
2023/04/14 00:32:26;;;;;;;2.05;1.45;;;7.80;72.10;;;;;;5041947;28;20021;-67
2023/04/14 00:34:51;;;;;;;2.95;1.77;;;7.80;72.00;;;;;;5066648;28;20044;-66
2023/04/14 00:37:17;;;;;;;2.35;1.60;;;7.80;72.00;;;;;;5069056;28;20025;-68
2023/04/14 00:39:42;;;;;;;2.60;1.63;;;7.80;72.10;;;;;;5063167;28;20031;-66
2023/04/14 00:42:08;;;;;;;3.35;1.83;;;7.80;72.10;;;;;;5061295;28;20545;-66
2023/04/14 00:44:33;;;;;;;4.55;2.40;;;7.90;72.10;;;;;;5045867;28;20491;-66
2023/04/14 00:46:59;;;;;;;3.85;2.20;;;7.80;72.10;;;;;;5052953;28;20028;-69
2023/04/14 00:49:26;;;;;;;5.57;2.53;;;7.90;72.20;;;;;;5053983;28;20021;-67
2023/04/14 00:51:51;;;;;;;4.03;2.58;;;7.80;72.30;;;;;;5051443;28;20513;-67
2023/04/14 00:54:18;;;;;;;4.25;2.45;;;7.90;72.40;;;;;;5056232;28;20044;-68
2023/04/14 00:56:45;;;;;;;4.80;2.40;;;7.80;72.50;;;;;;5051593;28;20103;-66
2023/04/14 00:59:12;;;;;;;4.10;2.38;;;7.80;72.60;;;;;;5032441;28;20040;-66
2023/04/14 01:01:39;;;;;;;6.68;3.50;;;7.80;72.80;;;;;;5051564;28;20083;-66
2023/04/14 01:04:05;;;;;;;5.65;3.40;;;7.80;72.80;;;;;;5031149;28;20036;-66
2023/04/14 01:06:31;;;;;;;6.22;2.75;;;7.80;72.90;;;;;;5051756;28;20025;-65
2023/04/14 01:08:58;;;;;;;6.28;2.90;;;7.80;72.90;;;;;;5046187;28;20032;-65
2023/04/14 01:11:51;;;;;;;4.93;2.67;;;7.80;73.00;;;;;;5050967;28;20052;-67
2023/04/14 01:14:30;;;;;;;5.38;3.03;;;7.70;73.10;;;;;;5050893;28;20106;-66
2023/04/14 01:17:00;;;;;;;3.85;2.65;;;7.80;73.20;;;;;;5051294;28;20047;-65
2023/04/14 01:20:03;;;;;;;4.68;2.78;;;7.80;73.20;;;;;;5048046;28;20415;-67
2023/04/14 01:22:29;;;;;;;;;;;7.70;73.30;;;;;;5050810;28;20483;-67
2023/04/14 01:25:22;;;;;;;4.60;2.53;;;7.70;73.20;;;;;;5049338;28;20004;-66
2023/04/14 01:27:53;;;;;;;4.63;2.65;;;7.70;73.40;;;;;;5035447;28;20033;-66
2023/04/14 01:30:28;;;;;;;4.95;2.90;;;7.70;73.50;;;;;;5052252;28;20049;-68
2023/04/14 01:32:56;;;;;;;5.32;3.20;;;7.60;73.50;;;;;;5051353;28;20030;-66
2023/04/14 01:35:35;;;;;;;5.40;3.40;;;7.60;73.60;;;;;;5046497;28;20044;-66
2023/04/14 01:38:13;;;;;;;4.88;2.80;;;7.60;73.70;;;;;;5050823;28;20071;-68
2023/04/14 01:40:41;;;;;;;5.35;3.17;;;7.60;73.80;;;;;;5062720;28;20036;-67
2023/04/14 01:43:11;;;;;;;5.82;3.10;;;7.50;73.70;;;;;;5058781;28;20117;-68
2023/04/14 01:45:41;;;;;;;5.80;3.22;;;7.50;74.00;;;;;;5057755;28;20028;-67
2023/04/14 01:48:08;;;;;;;4.50;2.80;;;7.50;74.10;;;;;;5033974;28;20060;-65
2023/04/14 01:50:35;;;;;;;5.82;3.13;;;7.50;74.30;;;;;;5050605;28;20479;-66
2023/04/14 01:53:03;;;;;;;4.32;2.85;;;7.50;74.30;;;;;;5047231;28;20017;-66
2023/04/14 01:55:32;;;;;;;5.10;3.22;;;7.50;74.40;;;;;;5054276;28;20021;-68
2023/04/14 01:57:58;;;;;;;6.82;3.38;;;7.50;74.40;;;;;;5051502;28;20082;-67
2023/04/14 02:00:25;;;;;;;4.88;3.33;;;7.40;74.40;;;;;;5048889;28;20032;-67
2023/04/14 02:02:52;;;;;;;4.97;3.08;;;7.40;74.40;;;;;;5047186;28;20395;-67
2023/04/14 02:05:20;;;;;;;5.25;2.75;;;7.40;74.50;;;;;;5055907;28;20024;-67
2023/04/14 02:07:47;;;;;;;4.72;3.30;;;7.30;74.50;;;;;;5064651;28;20082;-67
2023/04/14 02:10:15;;;;;;;6.85;3.25;;;7.30;74.60;;;;;;5055779;28;20078;-66
2023/04/14 02:12:42;;;;;;;7.10;4.28;;;7.30;74.60;;;;;;5038931;28;20475;-66
2023/04/14 02:15:12;;;;;;;8.00;4.20;;;7.30;74.80;;;;;;5058574;28;20021;-67
2023/04/14 02:17:41;;;;;;;6.10;3.92;;;7.30;75.00;;;;;;5044999;28;20114;-68
2023/04/14 02:20:12;;;;;;;6.32;3.70;;;7.20;75.10;;;;;;5051882;28;20035;-67
2023/04/14 02:22:38;;;;;;;6.43;3.50;;;7.30;75.30;;;;;;5062382;28;20033;-68
2023/04/14 02:25:04;;;;;;;5.13;3.60;;;7.30;75.30;;;;;;5047112;28;20104;-67
2023/04/14 02:27:40;;;;;;;6.55;3.53;;;7.30;75.30;;;;;;5049784;28;20061;-67
2023/04/14 02:30:28;;;;;;;6.43;3.53;;;7.30;75.40;;;;;;5050895;28;20484;-68
2023/04/14 02:33:00;;;;;;;4.13;3.00;;;7.30;75.30;;;;;;5030309;28;20032;-66
2023/04/14 02:35:29;;;;;;;6.82;3.22;;;7.30;75.20;;;;;;5046956;28;20538;-66
2023/04/14 02:38:01;;;;;;;5.32;3.42;;;7.30;75.20;;;;;;5053343;28;20087;-68
2023/04/14 02:40:30;;;;;;;6.57;3.60;;;7.30;75.10;;;;;;5048735;28;20055;-66
2023/04/14 02:43:01;;;;;;;6.15;3.55;;;7.30;75.10;;;;;;5052541;28;20060;-67
2023/04/14 02:45:31;;;;;;;4.53;3.13;;;7.30;75.10;;;;;;5048361;28;20029;-67
2023/04/14 02:48:02;;;;;;;5.68;3.38;;;7.30;75.10;;;;;;5049315;28;20033;-67
2023/04/14 02:50:30;;;;;;;4.82;3.20;;;7.30;75.20;;;;;;5050174;28;20025;-66
2023/04/14 02:52:57;;;;;;;6.93;4.15;;;7.30;75.30;;;;;;5049524;28;20380;-66
2023/04/14 02:55:23;;;;;;;6.05;3.53;;;7.30;75.20;;;;;;5049679;28;20736;-68
2023/04/14 02:57:50;;;;;;;4.95;3.35;;;7.30;75.20;;;;;;5036301;28;20124;-66
2023/04/14 03:00:16;;;;;;;5.10;3.33;;;7.30;75.30;;;;;;5049131;28;20082;-67
2023/04/14 03:02:45;;;;;;;7.60;3.75;;;7.30;75.30;;;;;;5065079;28;20087;-67
2023/04/14 03:05:12;;;;;;;4.13;3.20;;;7.20;75.30;;;;;;5050840;28;20565;-70
2023/04/14 03:07:40;;;;;;;6.13;3.38;;;7.20;75.40;;;;;;5052265;28;20033;-67
2023/04/14 03:10:09;;;;;;;6.47;3.67;;;7.20;75.30;;;;;;5047931;28;20450;-66
2023/04/14 03:12:35;;;;;;;7.13;3.97;;;7.20;75.40;;;;;;5049858;28;20028;-67
2023/04/14 03:15:01;;;;;;;6.25;3.80;;;7.20;75.50;;;;;;5035407;28;20025;-66
2023/04/14 03:17:28;;;;;;;5.88;3.60;;;7.10;75.60;;;;;;5050101;28;20025;-67
2023/04/14 03:19:54;;;;;;;6.00;3.60;;;7.10;75.70;;;;;;5056447;28;20028;-69
2023/04/14 03:22:22;;;;;;;6.22;3.72;;;7.10;75.70;;;;;;5061768;28;20028;-68
2023/04/14 03:24:49;;;;;;;7.20;3.45;;;7.00;75.60;;;;;;5058416;28;20136;-67
2023/04/14 03:27:20;;;;;;;4.95;3.47;;;7.00;75.70;;;;;;5049906;28;20108;-67
2023/04/14 03:29:50;;;;;;;6.20;3.80;;;7.00;75.80;;;;;;5049671;28;20052;-67
2023/04/14 03:32:17;;;;;;;5.53;3.70;;;6.90;75.90;;;;;;5049360;28;20029;-66
2023/04/14 03:34:47;;;;;;;5.68;3.70;;;6.90;76.00;;;;;;5048905;28;20539;-66
2023/04/14 03:37:16;;;;;;;5.70;3.40;;;6.90;75.90;;;;;;5051076;28;20025;-67
2023/04/14 03:39:44;;;;;;;5.05;3.60;;;6.90;75.90;;;;;;5052517;28;20025;-66
2023/04/14 03:42:11;;;;;;;6.47;3.60;;;6.80;76.00;;;;;;5051137;28;20421;-65
2023/04/14 03:44:41;;;;;;;10.25;4.20;;;6.80;76.00;;;;;;5053010;28;20092;-68
2023/04/14 03:47:09;;;;;;;5.28;3.70;;;6.70;76.00;;;;;;5056262;28;20036;-68
2023/04/14 03:49:37;;;;;;;5.13;3.53;;;6.70;76.20;;;;;;5057197;28;20016;-67
2023/04/14 03:52:07;;;;;;;6.88;3.75;;;6.70;76.30;;;;;;5055480;28;20047;-68
2023/04/14 03:54:35;;;;;;;7.05;3.95;;;6.70;76.20;;;;;;5052842;28;20032;-67
2023/04/14 03:57:04;;;;;;;6.70;3.70;;;6.70;76.10;;;;;;5060855;28;20532;-67
2023/04/14 03:59:31;;;;;;;7.22;3.95;;;6.60;76.10;;;;;;5052376;28;20025;-67
2023/04/14 04:01:57;;;;;;;5.95;3.75;;;6.60;76.40;;;;;;5054175;28;20033;-68
2023/04/14 04:04:24;;;;;;;7.55;3.72;;;6.50;76.50;;;;;;5052025;28;20843;-67
2023/04/14 04:06:51;;;;;;;5.25;3.78;;;6.50;76.40;;;;;;5052864;28;20037;-68
2023/04/14 04:09:19;;;;;;;5.72;3.53;;;6.50;76.50;;;;;;5052494;28;20422;-68
2023/04/14 04:11:46;;;;;;;4.40;3.20;;;6.50;76.40;;;;;;5052185;28;20020;-66
2023/04/14 04:14:13;;;;;;;5.47;3.38;;;6.50;76.50;;;;;;5061119;28;20104;-66
2023/04/14 04:16:41;;;;;;;6.80;3.78;;;6.40;76.50;;;;;;5055838;28;20071;-66
2023/04/14 04:19:09;;;;;;;5.43;3.35;;;6.40;76.70;;;;;;5039622;28;20112;-67
2023/04/14 04:21:39;;;;;;;5.03;3.40;;;6.40;76.80;;;;;;5042382;28;20057;-66
2023/04/14 04:24:05;;;;;;;5.88;3.25;;;6.40;76.90;;;;;;5046937;28;20697;-66
2023/04/14 04:26:31;;;;;;;5.88;3.33;;;6.40;76.90;;;;;;5050950;28;20036;-66
2023/04/14 04:28:57;;;;;;;6.18;3.22;;;6.40;76.90;;;;;;5033834;28;20064;-66
2023/04/14 04:31:23;;;;;;;5.72;3.10;;;6.40;76.80;;;;;;5050100;28;20391;-66
2023/04/14 04:33:50;;;;;;;6.88;3.42;;;6.40;76.80;;;;;;5043046;28;20089;-66
2023/04/14 04:36:16;;;;;;;4.43;3.13;;;6.50;76.70;;;;;;5045322;28;20083;-66
2023/04/14 04:38:41;;;;;;;5.40;3.10;;;6.50;76.60;;;;;;5053235;28;20466;-67
2023/04/14 04:41:19;;;;;;;6.53;3.20;;;6.40;76.50;;;;;;5048599;28;20105;-66
2023/04/14 04:43:44;;;;;;;7.95;3.63;;;6.40;76.50;;;;;;5053174;28;20025;-67
2023/04/14 04:46:23;;;;;;;6.50;3.65;;;6.40;76.60;;;;;;5052791;28;20033;-67
2023/04/14 04:48:52;;;;;;;6.53;3.67;;;6.40;76.70;;;;;;5053677;28;20119;-68
2023/04/14 04:51:17;;;;;;;4.72;3.05;;;6.40;76.80;;;;;;5047954;28;20518;-66
2023/04/14 04:53:43;;;;;;;7.40;3.22;;;6.40;76.90;;;;;;5047821;28;20033;-67
2023/04/14 04:56:09;;;;;;;5.88;3.20;;;6.40;77.00;;;;;;5044142;28;20372;-68
2023/04/14 04:58:34;;;;;;;7.97;3.83;;;6.40;76.90;;;;;;5047627;28;20033;-67
2023/04/14 05:01:07;;;;;;;5.80;3.40;;;6.40;76.80;;;;;;5044057;28;20668;-65
2023/04/14 05:03:33;;;;;;;6.22;3.35;;;6.40;76.80;;;;;;5054281;28;20025;-67
2023/04/14 05:05:58;;;;;;;6.72;3.50;;;6.40;76.70;;;;;;5049723;28;20025;-65
2023/04/14 05:08:24;;;;;;;6.50;3.60;;;6.40;76.80;;;;;;5050915;28;20098;-66
2023/04/14 05:10:49;;;;;;;8.18;3.70;;;6.40;76.90;;;;;;5037156;28;20029;-66
2023/04/14 05:13:15;;;;;;;6.55;3.72;;;6.40;76.80;;;;;;5052413;28;20143;-69
2023/04/14 05:15:41;;;;;;;4.90;3.42;;;6.50;76.80;;;;;;5050061;28;20039;-65
2023/04/14 05:18:06;;;;;;;7.25;3.72;;;6.50;76.70;;;;;;5047167;28;20459;-64
2023/04/14 05:20:32;;;;;;;6.57;3.50;;;6.60;76.70;;;;;;5050295;28;20035;-66
2023/04/14 05:22:57;;;;;;;5.63;3.60;;;6.60;76.60;;;;;;5052099;28;20037;-69
2023/04/14 05:25:23;;;;;;;6.53;3.72;;;6.60;76.70;;;;;;5048198;28;20029;-65
2023/04/14 05:27:49;;;;;;;8.88;3.95;;;6.70;76.70;;;;;;5051288;28;21626;-65
2023/04/14 05:30:14;;;;;;;7.45;3.40;;;6.70;76.70;;;;;;5048048;28;20017;-64
2023/04/14 05:32:40;;;;;;;5.90;4.05;;;7.60;76.80;;;;;;5050803;28;20364;-68
2023/04/14 05:35:06;;;;;;;5.60;3.70;;;8.70;74.80;;;;;;5049234;28;20044;-65
2023/04/14 05:37:32;;;;;;;5.35;3.85;;;9.80;72.20;;;;;;5048504;28;20048;-66
2023/04/14 05:39:57;;;;;;;7.97;4.22;;;10.70;69.70;;;;;;5051689;28;20039;-66
2023/04/14 05:42:23;;;;;;;7.45;3.80;;;11.40;67.50;;;;;;5049421;28;20542;-65
2023/04/14 05:44:48;;;;;;;5.47;3.80;;;12.20;65.70;;;;;;5049511;28;20487;-68
2023/04/14 05:47:14;;;;;;;6.43;3.92;;;12.30;64.20;;;;;;5048917;28;20031;-66
2023/04/14 05:49:40;;;;;;;7.32;3.75;;;12.10;64.00;;;;;;5050079;28;20445;-67
2023/04/14 05:52:05;;;;;;;7.88;4.13;;;11.80;64.30;;;;;;5050843;28;20021;-67
2023/04/14 05:54:31;;;;;;;7.80;4.30;;;11.50;64.60;;;;;;5038639;28;20488;-68
2023/04/14 05:56:57;;;;;;;5.32;3.60;;;11.20;65.10;;;;;;5048388;28;20503;-65
2023/04/14 05:59:22;;;;;;;6.43;3.47;;;11.10;66.00;;;;;;5048849;28;20480;-67
2023/04/14 06:01:48;;;;;;;6.28;3.45;;;11.40;66.10;;;;;;5049090;28;20104;-66
2023/04/14 06:04:14;;;;;;;9.70;4.50;;;12.00;65.30;;;;;;5048546;28;20386;-65
2023/04/14 06:06:40;;;;;;;8.00;4.38;;;13.00;63.50;;;;;;5048795;28;20025;-67
2023/04/14 06:09:05;;;;;;;9.40;4.65;;;14.20;60.50;;;;;;5023672;28;20074;-66
2023/04/14 06:11:31;;;;;;;6.55;3.50;;;15.20;58.50;;;;;;5031443;28;20049;-66
2023/04/14 06:13:57;;;;;;;5.35;3.58;;;16.10;56.80;;;;;;5047863;28;20024;-66
2023/04/14 06:16:23;;;;;;;8.27;3.55;;;16.70;55.20;;;;;;5045254;28;20032;-66
2023/04/14 06:18:48;;;;;;;6.25;3.30;;;17.30;54.00;;;;;;5048673;28;20421;-67
2023/04/14 06:21:14;;;;;;;7.80;3.67;;;17.70;53.00;;;;;;5048759;28;20044;-66
2023/04/14 06:23:39;;;;;;;7.15;4.22;;;18.10;52.10;;;;;;5051840;28;20032;-66
2023/04/14 06:26:05;;;;;;;7.75;4.15;;;18.30;50.60;;;;;;5043811;28;20037;-66
2023/04/14 06:28:31;;;;;;;7.40;3.97;;;18.30;49.30;;;;;;5039156;28;20029;-67
2023/04/14 06:30:59;;;;;;;7.15;3.80;;;18.20;48.90;;;;;;5036578;28;20047;-67
2023/04/14 06:33:24;;;;;;;8.32;3.85;;;18.50;48.80;;;;;;5040403;28;20082;-66
2023/04/14 06:35:50;;;;;;;6.13;3.72;;;18.50;48.00;;;;;;5034257;28;20032;-67
2023/04/14 06:38:15;;;;;;;8.02;3.10;;;18.70;48.00;;;;;;5049047;28;20029;-65
2023/04/14 06:40:42;;;;;;;4.72;3.13;;;19.30;47.80;;;;;;5053109;28;20022;-66
2023/04/14 06:43:09;;;;;;;5.85;3.35;;;19.70;47.20;;;;;;5036739;28;20018;-68
2023/04/14 06:45:35;;;;;;;9.93;4.18;;;20.20;46.40;;;;;;5036966;28;20109;-67
2023/04/14 06:48:01;;;;;;;6.57;3.42;;;20.50;45.20;;;;;;5058028;28;20111;-65
2023/04/14 06:50:26;;;;;;;7.13;3.55;;;20.70;44.70;;;;;;5050039;28;20467;-66
2023/04/14 06:52:52;;;;;;;5.28;3.20;;;20.40;44.70;;;;;;5042728;28;20045;-66
2023/04/14 06:55:18;;;;;;;6.53;3.28;;;20.70;43.90;;;;;;5045688;28;20033;-67
2023/04/14 06:57:43;;;;;;;9.05;3.70;;;20.70;44.20;;;;;;5047698;28;20040;-66
2023/04/14 07:00:10;;;;;;;6.15;3.50;;;20.70;43.60;;;;;;5049589;28;20051;-66
2023/04/14 07:02:35;;;;;;;5.82;3.25;;;21.10;43.80;;;;;;5039830;28;20018;-66
2023/04/14 07:05:01;;;;;;;7.05;3.53;;;21.40;43.20;;;;;;5041868;28;20402;-68
2023/04/14 07:07:27;;;;;;;5.78;2.90;;;21.50;43.00;;;;;;5043615;28;20139;-68
2023/04/14 07:09:52;;;;;;;6.10;3.20;;;21.70;42.90;;;;;;5040973;28;20032;-67
2023/04/14 07:12:18;;;;;;;5.68;3.38;;;22.30;42.70;;;;;;5040562;28;20087;-66
2023/04/14 07:14:50;;;;;;;6.97;3.60;;;22.70;41.60;;;;;;5046055;28;20060;-65
2023/04/14 07:17:17;;;;;;;6.88;4.00;;;22.80;40.90;;;;;;5043618;28;20021;-68
2023/04/14 07:19:43;;;;;;;7.47;3.80;;;22.80;39.90;;;;;;5042774;28;20437;-67
2023/04/14 07:22:08;;;;;;;8.63;3.55;;;22.80;40.00;;;;;;5043073;28;20025;-66
2023/04/14 07:24:34;;;;;;;7.53;3.92;;;22.90;39.50;;;;;;5039908;28;20033;-64
2023/04/14 07:26:59;;;;;;;6.15;2.70;;;22.90;39.00;;;;;;5042660;28;20036;-68
2023/04/14 07:29:26;;;;;;;7.07;3.58;;;23.10;39.50;;;;;;5045647;28;20091;-65
2023/04/14 07:31:51;;;;;;;5.85;3.00;;;23.10;39.10;;;;;;5038417;28;20013;-67
2023/04/14 07:34:18;;;;;;;6.72;2.70;;;23.10;38.90;;;;;;5043418;28;20975;-65
2023/04/14 07:36:44;;;;;;;8.00;3.05;;;23.20;39.10;;;;;;5046992;28;20594;-65
2023/04/14 07:39:10;;;;;;;7.82;3.40;;;23.40;38.40;;;;;;5051400;28;20029;-68
2023/04/14 07:41:36;;;;;;;6.22;3.17;;;23.30;38.60;;;;;;5050257;28;20623;-65
2023/04/14 07:44:01;;;;;;;5.97;2.78;;;23.40;38.20;;;;;;5025073;28;20087;-67
2023/04/14 07:46:27;;;;;;;5.00;2.78;;;23.30;38.40;;;;;;5050089;28;20822;-65
2023/04/14 07:48:52;;;;;;;6.55;3.10;;;23.30;38.30;;;;;;5047420;28;20036;-66
2023/04/14 07:51:18;;;;;;;6.72;3.10;;;23.40;38.40;;;;;;5041733;28;20029;-67
2023/04/14 07:53:44;;;;;;;5.47;3.10;;;23.60;38.40;;;;;;5022954;28;20025;-66
2023/04/14 07:56:14;;;;;;;7.18;2.85;;;23.90;38.00;;;;;;5049863;28;20298;-65
2023/04/14 07:58:40;;;;;;;5.07;2.40;;;24.00;37.90;;;;;;5048671;28;20041;-66
2023/04/14 08:01:06;;;;;;;5.30;3.35;;;24.30;37.70;;;;;;5061783;28;20028;-66
2023/04/14 08:03:32;;;;;;;6.00;3.03;;;23.60;37.40;;;;;;5045040;28;20029;-65
2023/04/14 08:05:57;;;;;;;5.60;2.45;;;23.50;38.40;;;;;;5048826;28;20051;-66
2023/04/14 08:08:24;;;;;;;6.25;2.95;;;23.50;38.60;;;;;;5047882;28;20471;-66
2023/04/14 08:10:49;;;;;;;4.78;2.30;;;23.20;38.40;;;;;;5047144;28;20028;-67
2023/04/14 08:13:15;;;;;;;4.85;2.60;;;23.40;38.40;;;;;;5046737;28;20029;-67
2023/04/14 08:15:40;;;;;;;5.53;2.63;;;23.60;38.60;;;;;;5040850;28;20100;-66
2023/04/14 08:18:06;;;;;;;5.43;2.58;;;23.60;38.30;;;;;;5043568;28;20387;-66
2023/04/14 08:20:32;;;;;;;5.72;2.40;;;23.50;38.50;;;;;;5048965;28;20103;-66
2023/04/14 08:22:57;;;;;;;6.13;2.75;;;23.70;38.60;;;;;;5047580;28;20028;-66
2023/04/14 08:25:23;;;;;;;4.57;2.03;;;23.60;38.30;;;;;;5031275;28;20037;-66
2023/04/14 08:27:49;;;;;;;6.70;2.58;;;23.60;38.60;;;;;;5047473;28;20025;-66
2023/04/14 08:30:15;;;;;;;6.53;2.60;;;23.80;38.50;;;;;;5046254;28;20075;-66
2023/04/14 08:32:40;;;;;;;7.70;2.45;;;23.10;37.80;;;;;;5048542;28;20375;-65
2023/04/14 08:35:08;;;;;;;6.00;2.38;;;22.60;38.50;;;;;;5040666;28;20025;-66
2023/04/14 08:37:33;;;;;;;7.07;2.20;;;22.00;39.10;;;;;;5034050;28;20039;-66
2023/04/14 08:39:59;;;;;;;4.88;1.90;;;21.90;39.70;;;;;;5041127;28;20099;-65
2023/04/14 08:42:25;;;;;;;5.70;2.25;;;22.40;39.70;;;;;;5045387;28;20029;-67
2023/04/14 08:44:53;;;;;;;6.15;2.40;;;21.60;39.70;;;;;;5043192;28;20025;-65
2023/04/14 08:47:21;;;;;;;5.00;2.42;;;20.90;41.10;;;;;;5044277;28;20056;-64
2023/04/14 08:49:55;;;;;;;10.13;2.72;;;20.70;42.40;;;;;;5045836;28;20089;-65
2023/04/14 08:52:25;;;;;;;4.47;1.98;;;20.20;43.00;;;;;;5045600;28;20033;-64
2023/04/14 08:54:54;;;;;;;5.95;2.50;;;19.70;44.10;;;;;;5051410;28;20060;-65
2023/04/14 08:57:23;;;;;;;5.80;2.47;;;19.00;44.50;;;;;;5044516;28;20863;-67
2023/04/14 08:59:50;;;;;;;4.35;2.03;;;18.40;45.90;;;;;;5027330;28;20020;-65
2023/04/14 09:02:17;;;;;;;6.45;2.20;;;17.80;46.80;;;;;;5043874;28;20025;-66
2023/04/14 09:04:43;;;;;;;6.68;2.20;;;17.30;47.60;;;;;;5046175;28;20048;-65
2023/04/14 09:07:09;;;;;;;5.10;2.20;;;16.60;48.10;;;;;;5043982;28;20116;-65
2023/04/14 09:09:35;;;;;;;5.65;2.25;;;16.10;49.10;;;;;;5044197;28;20036;-66
2023/04/14 09:12:02;;;;;;;4.65;2.17;;;15.90;50.10;;;;;;5046702;28;20091;-67
2023/04/14 09:14:28;;;;;;;5.68;2.10;;;15.60;49.70;;;;;;5048576;28;20025;-67
2023/04/14 09:16:55;;;;;;;7.55;2.10;;;15.20;49.70;;;;;;5031918;28;20025;-65
2023/04/14 09:19:23;;;;;;;7.65;2.22;;;14.90;50.90;;;;;;5030280;28;20028;-65
2023/04/14 09:21:49;;;;;;;5.78;2.10;;;14.90;51.80;;;;;;5048530;28;20056;-65
2023/04/14 09:24:22;;;;;;;6.00;1.90;;;14.90;51.70;;;;;;5049771;28;20061;-65
2023/04/14 09:26:48;;;;;;;5.50;2.38;;;14.90;51.70;;;;;;5051130;28;20033;-66
2023/04/14 09:29:14;;;;;;;4.63;1.60;;;14.80;51.50;;;;;;5044517;28;20025;-68
2023/04/14 09:31:39;;;;;;;5.75;1.80;;;14.80;51.60;;;;;;5048314;28;20082;-67
2023/04/14 09:34:17;;;;;;;4.68;1.90;;;14.90;51.80;;;;;;5053581;28;20033;-65
2023/04/14 09:37:05;;;;;;;6.80;2.10;;;14.90;51.60;;;;;;5044608;28;20116;-65
2023/04/14 09:39:32;;;;;;;4.57;1.90;;;14.90;51.70;;;;;;5048612;28;20022;-65
2023/04/14 09:42:02;;;;;;;5.32;1.70;;;14.90;51.30;;;;;;5047898;28;20048;-66
2023/04/14 09:44:28;;;;;;;4.95;1.80;;;14.70;51.10;;;;;;5046065;28;20031;-66
2023/04/14 09:47:01;;;;;;;4.03;1.77;;;14.70;51.50;;;;;;5046054;28;20039;-65
2023/04/14 09:49:28;;;;;;;4.28;1.52;;;14.80;51.50;;;;;;5044699;28;20391;-64
2023/04/14 09:51:59;;;;;;;7.03;1.95;;;14.80;50.70;;;;;;5046853;28;20013;-65
2023/04/14 09:54:25;;;;;;;5.07;1.88;;;14.80;50.30;;;;;;5047701;28;20029;-66
2023/04/14 09:56:52;;;;;;;4.88;1.88;;;14.90;51.10;;;;;;5048879;28;20036;-66
2023/04/14 09:59:30;;;;;;;4.68;1.83;;;15.00;50.20;;;;;;5045328;28;20499;-64
2023/04/14 10:01:58;;;;;;;5.90;1.73;;;15.00;50.60;;;;;;5045345;28;21304;-65
2023/04/14 10:04:25;;;;;;;5.95;1.80;;;15.00;49.60;;;;;;5049901;28;20399;-66
2023/04/14 10:06:57;;;;;;;4.25;1.73;;;14.90;49.20;;;;;;5046754;28;20071;-66
2023/04/14 10:09:25;;;;;;;;;;;14.80;49.30;;;;;;5034143;28;20490;-66
2023/04/14 10:12:13;;;;;;;5.07;1.88;;;14.90;49.70;;;;;;5045143;28;19908;-65
2023/04/14 10:14:40;;;;;;;6.13;1.48;;;14.90;49.40;;;;;;5031655;28;20029;-66
2023/04/14 10:17:06;;;;;;;3.20;1.52;;;15.00;50.20;;;;;;5048221;28;20083;-66
2023/04/14 10:19:33;;;;;;;5.03;1.50;;;15.00;48.60;;;;;;5044044;28;20036;-65
2023/04/14 10:21:59;;;;;;;3.78;1.42;;;15.00;48.90;;;;;;5044256;28;20036;-65
2023/04/14 10:24:25;;;;;;;3.22;1.33;;;15.00;48.10;;;;;;5047973;28;20044;-67
2023/04/14 10:26:51;;;;;;;4.05;1.48;;;14.90;47.70;;;;;;5060754;28;20051;-65
2023/04/14 10:29:17;;;;;;;3.83;1.50;;;14.90;47.80;;;;;;5046873;28;21767;-66
2023/04/14 10:32:08;;;;;;;4.30;1.50;;;15.00;47.70;;;;;;5047157;28;20089;-66
2023/04/14 10:34:36;;;;;;;5.30;1.80;;;15.10;48.30;;;;;;5034612;28;20055;-65
2023/04/14 10:37:12;;;;;;;4.38;1.70;;;15.30;48.30;;;;;;5048141;28;20023;-66
2023/04/14 10:39:38;;;;;;;5.07;1.80;;;15.30;47.60;;;;;;5050878;28;20082;-65
2023/04/14 10:42:04;;;;;;;3.30;1.58;;;15.20;46.80;;;;;;5044738;28;20112;-65
2023/04/14 10:44:32;;;;;;;5.20;1.63;;;15.30;47.60;;;;;;5044113;28;20108;-66
2023/04/14 10:47:00;;;;;;;4.43;1.55;;;15.20;47.90;;;;;;5044782;28;20111;-66
2023/04/14 10:49:38;;;;;;;4.97;1.73;;;15.20;48.40;;;;;;5045621;28;20135;-65
2023/04/14 10:52:25;;;;;;;4.55;1.73;;;15.30;48.50;;;;;;5051492;28;20036;-66
2023/04/14 10:55:06;;;;;;;5.50;1.88;;;15.40;47.70;;;;;;5047643;28;20511;-65
2023/04/14 10:57:38;;;;;;;2.73;1.50;;;15.40;47.80;;;;;;5044928;28;20096;-67
2023/04/14 11:00:23;;;;;;;3.20;1.20;;;15.50;47.20;;;;;;5039034;28;20291;-68
2023/04/14 11:03:03;;;;;;;4.38;1.40;;;15.60;47.30;;;;;;5044777;28;20436;-66
2023/04/14 11:05:32;;;;;;;3.53;1.42;;;15.70;47.20;;;;;;5045594;28;20103;-66
2023/04/14 11:08:00;;;;;;;4.53;1.50;;;15.70;45.40;;;;;;5042203;28;20637;-65
2023/04/14 11:10:29;;;;;;;2.95;1.40;;;15.80;45.70;;;;;;5027828;28;20021;-66
2023/04/14 11:13:07;;;;;;;4.60;1.50;;;15.80;46.20;;;;;;5044335;28;20032;-66
2023/04/14 11:15:57;;;;;;;4.95;1.30;;;15.90;45.50;;;;;;5039360;28;20029;-69
2023/04/14 11:18:28;;;;;;;3.45;1.42;;;16.00;45.20;;;;;;5045224;28;20073;-65
2023/04/14 11:21:16;;;;;;;3.90;1.50;;;16.00;45.20;;;;;;5042318;28;20139;-66
2023/04/14 11:23:42;;;;;;;4.00;1.40;;;16.00;44.70;;;;;;5045058;28;20053;-65
2023/04/14 11:26:10;;;;;;;4.03;1.40;;;16.10;45.60;;;;;;5041217;28;20108;-65
2023/04/14 11:28:37;;;;;;;3.05;1.25;;;16.20;45.50;;;;;;5041872;28;20067;-66
2023/04/14 11:31:05;;;;;;;5.43;1.70;;;16.30;45.10;;;;;;5042022;28;20029;-64
2023/04/14 11:33:33;;;;;;;3.67;1.67;;;16.40;44.70;;;;;;5044368;28;20037;-66
2023/04/14 11:36:01;;;;;;;4.70;1.48;;;16.20;44.50;;;;;;5044578;28;20017;-66
2023/04/14 11:38:27;;;;;;;5.95;1.73;;;16.10;45.30;;;;;;5043739;28;20025;-66
2023/04/14 11:40:53;;;;;;;4.75;1.60;;;16.10;45.60;;;;;;5046135;28;20029;-65
2023/04/14 11:43:20;;;;;;;3.38;1.33;;;16.20;45.40;;;;;;5040605;28;20020;-64
2023/04/14 11:45:47;;;;;;;3.95;1.45;;;16.20;45.10;;;;;;5042399;28;20036;-66
2023/04/14 11:48:17;;;;;;;3.47;1.40;;;16.30;45.10;;;;;;5044061;28;20017;-64
2023/04/14 11:50:44;;;;;;;4.43;1.80;;;16.40;45.20;;;;;;5045106;28;20017;-69
2023/04/14 11:53:17;;;;;;;4.00;1.95;;;16.40;45.50;;;;;;5043533;28;20029;-65
2023/04/14 11:55:48;;;;;;;6.63;2.05;;;16.60;45.40;;;;;;5043307;28;20566;-64
2023/04/14 11:58:26;;;;;;;5.20;1.80;;;16.50;45.00;;;;;;5043004;28;21457;-66
2023/04/14 12:00:53;;;;;;;4.10;1.80;;;16.50;45.60;;;;;;5048421;28;20506;-65
2023/04/14 12:03:20;;;;;;;6.40;3.10;;;16.60;45.60;;;;;;5048919;28;20044;-65
2023/04/14 12:05:45;;;;;;;4.68;1.92;;;16.40;45.60;;;;;;5049918;28;20087;-66
2023/04/14 12:08:11;;;;;;;4.57;1.73;;;16.30;46.20;;;;;;5051969;28;20037;-65
2023/04/14 12:10:38;;;;;;;5.15;2.08;;;16.30;45.80;;;;;;5049480;28;20415;-65
2023/04/14 12:13:06;;;;;;;4.20;1.85;;;16.30;45.50;;;;;;5051052;28;20144;-65
2023/04/14 12:15:35;;;;;;;4.25;1.92;;;16.40;45.00;;;;;;5046646;28;20021;-65
2023/04/14 12:18:02;;;;;;;7.70;2.40;;;16.40;45.30;;;;;;5048622;28;20029;-65
2023/04/14 12:20:40;;;;;;;4.68;1.77;;;16.40;45.50;;;;;;5052166;28;20024;-65
2023/04/14 12:23:06;;;;;;;4.22;1.80;;;16.60;45.80;;;;;;5048679;28;20029;-65
2023/04/14 12:25:32;;;;;;;5.45;2.30;;;16.60;45.90;;;;;;5048736;28;20038;-65
2023/04/14 12:27:57;;;;;;;4.32;1.98;;;16.60;45.60;;;;;;5048714;28;20066;-66
2023/04/14 12:30:25;;;;;;;5.07;2.00;;;16.40;45.30;;;;;;5030891;28;20124;-67
2023/04/14 12:32:51;;;;;;;3.92;2.00;;;16.10;46.30;;;;;;5046812;28;20313;-65
2023/04/14 12:35:22;;;;;;;4.05;1.67;;;16.20;46.70;;;;;;5063738;28;20035;-67
2023/04/14 12:37:48;;;;;;;5.43;1.92;;;16.20;46.80;;;;;;5044857;28;20035;-66
2023/04/14 12:40:15;;;;;;;4.80;1.55;;;16.20;46.40;;;;;;5047924;28;20658;-66
2023/04/14 12:42:47;;;;;;;4.50;1.60;;;16.40;46.70;;;;;;5048413;28;20025;-68
2023/04/14 12:45:15;;;;;;;4.00;1.77;;;16.50;46.50;;;;;;5049011;28;20610;-65
2023/04/14 12:47:51;;;;;;;6.32;2.08;;;16.50;46.30;;;;;;5048610;28;20128;-65
2023/04/14 12:50:29;;;;;;;4.82;1.73;;;16.50;45.90;;;;;;5033514;28;20017;-65
2023/04/14 12:52:55;;;;;;;3.88;1.60;;;16.70;45.40;;;;;;5047293;28;20112;-65
2023/04/14 12:55:29;;;;;;;5.15;1.90;;;16.90;45.10;;;;;;5029285;28;20469;-66
2023/04/14 12:57:55;;;;;;;4.00;1.80;;;16.90;44.80;;;;;;5048592;28;20024;-65